sensor_id;sensor_type;location;lat;lon;timestamp;P1;durP1;ratioP1;P2;durP2;ratioP2
38847;SDS011;24602;44.780;20.408;2022-07-23T00:00:25;25.25;;;9.68;;
38847;SDS011;24602;44.780;20.408;2022-07-23T00:02:53;24.30;;;11.88;;
38847;SDS011;24602;44.780;20.408;2022-07-23T00:05:20;20.95;;;10.30;;
38847;SDS011;24602;44.780;20.408;2022-07-23T00:07:48;19.33;;;9.07;;
38847;SDS011;24602;44.780;20.408;2022-07-23T00:10:15;15.23;;;8.00;;
38847;SDS011;24602;44.780;20.408;2022-07-23T00:12:42;17.48;;;7.15;;
38847;SDS011;24602;44.780;20.408;2022-07-23T00:15:18;15.15;;;7.18;;
38847;SDS011;24602;44.780;20.408;2022-07-23T00:17:45;17.27;;;8.07;;
38847;SDS011;24602;44.780;20.408;2022-07-23T00:20:13;18.00;;;8.93;;
38847;SDS011;24602;44.780;20.408;2022-07-23T00:22:50;16.60;;;9.05;;
38847;SDS011;24602;44.780;20.408;2022-07-23T00:25:21;18.30;;;8.93;;
38847;SDS011;24602;44.780;20.408;2022-07-23T00:27:54;15.65;;;9.82;;
38847;SDS011;24602;44.780;20.408;2022-07-23T00:30:22;15.15;;;8.32;;
38847;SDS011;24602;44.780;20.408;2022-07-23T00:32:50;13.32;;;7.40;;
38847;SDS011;24602;44.780;20.408;2022-07-23T00:35:24;13.75;;;8.73;;
38847;SDS011;24602;44.780;20.408;2022-07-23T00:37:53;13.10;;;7.47;;
38847;SDS011;24602;44.780;20.408;2022-07-23T00:40:21;14.45;;;7.63;;
38847;SDS011;24602;44.780;20.408;2022-07-23T00:42:49;17.27;;;7.32;;
38847;SDS011;24602;44.780;20.408;2022-07-23T00:45:17;12.40;;;7.03;;
38847;SDS011;24602;44.780;20.408;2022-07-23T00:47:45;17.17;;;7.40;;
38847;SDS011;24602;44.780;20.408;2022-07-23T00:50:13;15.90;;;7.07;;
38847;SDS011;24602;44.780;20.408;2022-07-23T00:52:40;16.25;;;7.63;;
38847;SDS011;24602;44.780;20.408;2022-07-23T00:55:09;14.02;;;6.60;;
38847;SDS011;24602;44.780;20.408;2022-07-23T00:57:38;12.65;;;5.93;;
38847;SDS011;24602;44.780;20.408;2022-07-23T01:00:07;14.32;;;6.07;;
38847;SDS011;24602;44.780;20.408;2022-07-23T01:02:37;13.45;;;5.88;;
38847;SDS011;24602;44.780;20.408;2022-07-23T01:05:06;8.77;;;5.18;;
38847;SDS011;24602;44.780;20.408;2022-07-23T01:07:34;13.65;;;6.03;;
38847;SDS011;24602;44.780;20.408;2022-07-23T01:10:02;11.02;;;4.82;;
38847;SDS011;24602;44.780;20.408;2022-07-23T01:12:32;9.98;;;5.32;;
38847;SDS011;24602;44.780;20.408;2022-07-23T01:14:59;12.48;;;5.55;;
38847;SDS011;24602;44.780;20.408;2022-07-23T01:17:30;8.00;;;4.70;;
38847;SDS011;24602;44.780;20.408;2022-07-23T01:19:58;12.90;;;5.85;;
38847;SDS011;24602;44.780;20.408;2022-07-23T01:22:28;18.20;;;6.63;;
38847;SDS011;24602;44.780;20.408;2022-07-23T01:24:56;13.35;;;6.72;;
38847;SDS011;24602;44.780;20.408;2022-07-23T01:27:26;11.32;;;6.65;;
38847;SDS011;24602;44.780;20.408;2022-07-23T01:30:01;13.98;;;7.30;;
38847;SDS011;24602;44.780;20.408;2022-07-23T01:32:30;17.45;;;7.60;;
38847;SDS011;24602;44.780;20.408;2022-07-23T01:34:58;16.48;;;6.53;;
38847;SDS011;24602;44.780;20.408;2022-07-23T01:37:25;9.70;;;5.30;;
38847;SDS011;24602;44.780;20.408;2022-07-23T01:39:53;12.25;;;5.90;;
38847;SDS011;24602;44.780;20.408;2022-07-23T01:42:21;9.45;;;5.25;;
38847;SDS011;24602;44.780;20.408;2022-07-23T01:44:49;10.13;;;4.75;;
38847;SDS011;24602;44.780;20.408;2022-07-23T01:47:20;10.93;;;4.82;;
38847;SDS011;24602;44.780;20.408;2022-07-23T01:49:50;8.80;;;5.22;;
38847;SDS011;24602;44.780;20.408;2022-07-23T01:52:29;11.45;;;5.72;;
38847;SDS011;24602;44.780;20.408;2022-07-23T01:54:56;11.05;;;5.25;;
38847;SDS011;24602;44.780;20.408;2022-07-23T01:57:23;10.60;;;5.43;;
38847;SDS011;24602;44.780;20.408;2022-07-23T01:59:50;8.50;;;4.93;;
38847;SDS011;24602;44.780;20.408;2022-07-23T02:02:20;9.18;;;4.93;;
38847;SDS011;24602;44.780;20.408;2022-07-23T02:04:47;12.75;;;4.97;;
38847;SDS011;24602;44.780;20.408;2022-07-23T02:07:17;9.75;;;5.63;;
38847;SDS011;24602;44.780;20.408;2022-07-23T02:09:44;15.23;;;5.63;;
38847;SDS011;24602;44.780;20.408;2022-07-23T02:12:15;10.00;;;6.35;;
38847;SDS011;24602;44.780;20.408;2022-07-23T02:14:44;11.35;;;5.75;;
38847;SDS011;24602;44.780;20.408;2022-07-23T02:17:11;9.98;;;5.50;;
38847;SDS011;24602;44.780;20.408;2022-07-23T02:19:38;8.50;;;4.53;;
38847;SDS011;24602;44.780;20.408;2022-07-23T02:22:05;14.23;;;5.13;;
38847;SDS011;24602;44.780;20.408;2022-07-23T02:24:32;7.78;;;4.70;;
38847;SDS011;24602;44.780;20.408;2022-07-23T02:27:00;8.93;;;4.20;;
38847;SDS011;24602;44.780;20.408;2022-07-23T02:29:28;6.82;;;3.78;;
38847;SDS011;24602;44.780;20.408;2022-07-23T02:31:55;10.35;;;4.47;;
38847;SDS011;24602;44.780;20.408;2022-07-23T02:34:22;8.10;;;3.78;;
38847;SDS011;24602;44.780;20.408;2022-07-23T02:36:51;13.00;;;4.18;;
38847;SDS011;24602;44.780;20.408;2022-07-23T02:39:19;7.75;;;4.38;;
38847;SDS011;24602;44.780;20.408;2022-07-23T02:41:47;9.77;;;4.38;;
38847;SDS011;24602;44.780;20.408;2022-07-23T02:44:15;8.60;;;4.47;;
38847;SDS011;24602;44.780;20.408;2022-07-23T02:46:46;14.23;;;4.72;;
38847;SDS011;24602;44.780;20.408;2022-07-23T02:49:13;6.50;;;4.72;;
38847;SDS011;24602;44.780;20.408;2022-07-23T02:51:40;9.38;;;4.43;;
38847;SDS011;24602;44.780;20.408;2022-07-23T02:54:08;10.98;;;4.88;;
38847;SDS011;24602;44.780;20.408;2022-07-23T02:56:36;11.40;;;5.25;;
38847;SDS011;24602;44.780;20.408;2022-07-23T02:59:03;12.15;;;6.18;;
38847;SDS011;24602;44.780;20.408;2022-07-23T03:01:31;11.80;;;6.88;;
38847;SDS011;24602;44.780;20.408;2022-07-23T03:03:58;11.77;;;6.10;;
38847;SDS011;24602;44.780;20.408;2022-07-23T03:06:26;11.70;;;6.30;;
38847;SDS011;24602;44.780;20.408;2022-07-23T03:08:53;12.05;;;6.75;;
38847;SDS011;24602;44.780;20.408;2022-07-23T03:11:21;13.43;;;7.22;;
38847;SDS011;24602;44.780;20.408;2022-07-23T03:13:48;18.20;;;6.18;;
38847;SDS011;24602;44.780;20.408;2022-07-23T03:16:16;14.38;;;6.10;;
38847;SDS011;24602;44.780;20.408;2022-07-23T03:18:43;9.93;;;5.90;;
38847;SDS011;24602;44.780;20.408;2022-07-23T03:21:11;10.05;;;5.72;;
38847;SDS011;24602;44.780;20.408;2022-07-23T03:23:39;11.15;;;5.55;;
38847;SDS011;24602;44.780;20.408;2022-07-23T03:26:07;12.90;;;6.35;;
38847;SDS011;24602;44.780;20.408;2022-07-23T03:28:34;17.40;;;5.90;;
38847;SDS011;24602;44.780;20.408;2022-07-23T03:31:01;13.98;;;5.72;;
38847;SDS011;24602;44.780;20.408;2022-07-23T03:33:28;12.88;;;6.40;;
38847;SDS011;24602;44.780;20.408;2022-07-23T03:35:56;12.65;;;6.07;;
38847;SDS011;24602;44.780;20.408;2022-07-23T03:38:26;12.52;;;5.93;;
38847;SDS011;24602;44.780;20.408;2022-07-23T03:40:54;10.13;;;5.78;;
38847;SDS011;24602;44.780;20.408;2022-07-23T03:43:21;11.88;;;5.57;;
38847;SDS011;24602;44.780;20.408;2022-07-23T03:45:51;12.07;;;5.60;;
38847;SDS011;24602;44.780;20.408;2022-07-23T03:48:18;14.10;;;6.28;;
38847;SDS011;24602;44.780;20.408;2022-07-23T03:50:47;11.77;;;6.78;;
38847;SDS011;24602;44.780;20.408;2022-07-23T03:53:16;10.48;;;5.88;;
38847;SDS011;24602;44.780;20.408;2022-07-23T03:55:45;12.38;;;5.25;;
38847;SDS011;24602;44.780;20.408;2022-07-23T03:58:13;14.25;;;6.28;;
38847;SDS011;24602;44.780;20.408;2022-07-23T04:00:42;12.10;;;6.38;;
38847;SDS011;24602;44.780;20.408;2022-07-23T04:03:10;12.68;;;6.57;;
38847;SDS011;24602;44.780;20.408;2022-07-23T04:05:37;14.27;;;5.80;;
38847;SDS011;24602;44.780;20.408;2022-07-23T04:08:07;13.88;;;6.68;;
38847;SDS011;24602;44.780;20.408;2022-07-23T04:10:38;13.50;;;5.82;;
38847;SDS011;24602;44.780;20.408;2022-07-23T04:13:07;19.77;;;6.65;;
38847;SDS011;24602;44.780;20.408;2022-07-23T04:15:34;15.13;;;6.93;;
38847;SDS011;24602;44.780;20.408;2022-07-23T04:18:01;16.95;;;6.72;;
38847;SDS011;24602;44.780;20.408;2022-07-23T04:20:44;16.92;;;6.63;;
38847;SDS011;24602;44.780;20.408;2022-07-23T04:23:11;14.77;;;6.93;;
38847;SDS011;24602;44.780;20.408;2022-07-23T04:25:40;13.65;;;7.35;;
38847;SDS011;24602;44.780;20.408;2022-07-23T04:28:07;20.05;;;6.90;;
38847;SDS011;24602;44.780;20.408;2022-07-23T04:30:35;15.45;;;5.65;;
38847;SDS011;24602;44.780;20.408;2022-07-23T04:33:03;11.30;;;5.30;;
38847;SDS011;24602;44.780;20.408;2022-07-23T04:35:36;7.63;;;4.72;;
38847;SDS011;24602;44.780;20.408;2022-07-23T04:38:11;10.20;;;5.10;;
38847;SDS011;24602;44.780;20.408;2022-07-23T04:40:39;8.32;;;4.82;;
38847;SDS011;24602;44.780;20.408;2022-07-23T04:43:07;13.35;;;5.93;;
38847;SDS011;24602;44.780;20.408;2022-07-23T04:48:09;9.15;;;4.88;;
38847;SDS011;24602;44.780;20.408;2022-07-23T04:50:37;9.07;;;5.25;;
38847;SDS011;24602;44.780;20.408;2022-07-23T04:53:13;11.85;;;6.43;;
38847;SDS011;24602;44.780;20.408;2022-07-23T04:55:42;12.07;;;5.60;;
38847;SDS011;24602;44.780;20.408;2022-07-23T04:58:09;9.80;;;6.07;;
38847;SDS011;24602;44.780;20.408;2022-07-23T05:00:37;15.13;;;6.63;;
38847;SDS011;24602;44.780;20.408;2022-07-23T05:03:05;12.02;;;6.75;;
38847;SDS011;24602;44.780;20.408;2022-07-23T05:05:32;15.35;;;6.38;;
38847;SDS011;24602;44.780;20.408;2022-07-23T05:08:08;13.23;;;6.63;;
38847;SDS011;24602;44.780;20.408;2022-07-23T05:10:37;11.82;;;6.38;;
38847;SDS011;24602;44.780;20.408;2022-07-23T05:13:05;11.85;;;6.57;;
38847;SDS011;24602;44.780;20.408;2022-07-23T05:15:33;12.15;;;6.05;;
38847;SDS011;24602;44.780;20.408;2022-07-23T05:18:01;12.07;;;5.40;;
38847;SDS011;24602;44.780;20.408;2022-07-23T05:20:29;11.80;;;6.05;;
38847;SDS011;24602;44.780;20.408;2022-07-23T05:22:56;9.98;;;6.00;;
38847;SDS011;24602;44.780;20.408;2022-07-23T05:25:23;11.13;;;5.03;;
38847;SDS011;24602;44.780;20.408;2022-07-23T05:27:51;10.55;;;4.78;;
38847;SDS011;24602;44.780;20.408;2022-07-23T05:30:18;9.40;;;4.95;;
38847;SDS011;24602;44.780;20.408;2022-07-23T05:32:48;9.43;;;4.60;;
38847;SDS011;24602;44.780;20.408;2022-07-23T05:35:20;11.93;;;4.63;;
38847;SDS011;24602;44.780;20.408;2022-07-23T05:38:02;15.93;;;5.00;;
38847;SDS011;24602;44.780;20.408;2022-07-23T05:40:30;13.50;;;5.30;;
38847;SDS011;24602;44.780;20.408;2022-07-23T05:42:59;11.52;;;4.93;;
38847;SDS011;24602;44.780;20.408;2022-07-23T05:45:27;14.18;;;5.63;;
38847;SDS011;24602;44.780;20.408;2022-07-23T05:47:54;11.52;;;5.50;;
38847;SDS011;24602;44.780;20.408;2022-07-23T05:50:27;12.57;;;6.20;;
38847;SDS011;24602;44.780;20.408;2022-07-23T05:53:08;13.05;;;5.80;;
38847;SDS011;24602;44.780;20.408;2022-07-23T05:56:01;18.95;;;6.60;;
38847;SDS011;24602;44.780;20.408;2022-07-23T05:58:30;16.08;;;6.63;;
38847;SDS011;24602;44.780;20.408;2022-07-23T06:00:58;14.88;;;6.45;;
38847;SDS011;24602;44.780;20.408;2022-07-23T06:03:28;12.13;;;6.60;;
38847;SDS011;24602;44.780;20.408;2022-07-23T06:05:56;11.20;;;5.63;;
38847;SDS011;24602;44.780;20.408;2022-07-23T06:08:24;7.38;;;5.20;;
38847;SDS011;24602;44.780;20.408;2022-07-23T06:10:52;8.30;;;6.32;;
38847;SDS011;24602;44.780;20.408;2022-07-23T06:13:19;13.07;;;5.43;;
38847;SDS011;24602;44.780;20.408;2022-07-23T06:15:47;12.00;;;6.05;;
38847;SDS011;24602;44.780;20.408;2022-07-23T06:18:15;13.65;;;5.90;;
38847;SDS011;24602;44.780;20.408;2022-07-23T06:20:42;12.27;;;5.93;;
38847;SDS011;24602;44.780;20.408;2022-07-23T06:23:14;8.40;;;5.68;;
38847;SDS011;24602;44.780;20.408;2022-07-23T06:25:41;12.50;;;6.45;;
38847;SDS011;24602;44.780;20.408;2022-07-23T06:28:08;17.60;;;6.40;;
38847;SDS011;24602;44.780;20.408;2022-07-23T06:30:36;15.60;;;6.30;;
38847;SDS011;24602;44.780;20.408;2022-07-23T06:33:04;14.23;;;6.68;;
38847;SDS011;24602;44.780;20.408;2022-07-23T06:35:32;15.35;;;7.75;;
38847;SDS011;24602;44.780;20.408;2022-07-23T06:38:01;14.68;;;7.72;;
38847;SDS011;24602;44.780;20.408;2022-07-23T06:40:28;15.40;;;7.80;;
38847;SDS011;24602;44.780;20.408;2022-07-23T06:42:55;18.60;;;7.75;;
38847;SDS011;24602;44.780;20.408;2022-07-23T06:45:23;12.82;;;6.38;;
38847;SDS011;24602;44.780;20.408;2022-07-23T06:47:51;10.88;;;5.57;;
38847;SDS011;24602;44.780;20.408;2022-07-23T06:50:19;13.32;;;5.45;;
38847;SDS011;24602;44.780;20.408;2022-07-23T06:52:48;9.98;;;5.25;;
38847;SDS011;24602;44.780;20.408;2022-07-23T06:55:15;9.40;;;4.57;;
38847;SDS011;24602;44.780;20.408;2022-07-23T06:57:44;10.07;;;4.50;;
38847;SDS011;24602;44.780;20.408;2022-07-23T07:00:11;7.95;;;4.57;;
38847;SDS011;24602;44.780;20.408;2022-07-23T07:02:41;14.30;;;5.40;;
38847;SDS011;24602;44.780;20.408;2022-07-23T07:05:08;10.60;;;4.55;;
38847;SDS011;24602;44.780;20.408;2022-07-23T07:07:36;12.18;;;4.40;;
38847;SDS011;24602;44.780;20.408;2022-07-23T07:10:03;12.43;;;4.97;;
38847;SDS011;24602;44.780;20.408;2022-07-23T07:12:30;11.32;;;4.00;;
38847;SDS011;24602;44.780;20.408;2022-07-23T07:14:58;14.77;;;4.82;;
38847;SDS011;24602;44.780;20.408;2022-07-23T07:17:25;11.25;;;4.60;;
38847;SDS011;24602;44.780;20.408;2022-07-23T07:19:52;9.75;;;3.90;;
38847;SDS011;24602;44.780;20.408;2022-07-23T07:22:20;15.80;;;4.50;;
38847;SDS011;24602;44.780;20.408;2022-07-23T07:24:47;12.32;;;4.32;;
38847;SDS011;24602;44.780;20.408;2022-07-23T07:27:14;6.75;;;3.53;;
38847;SDS011;24602;44.780;20.408;2022-07-23T07:29:42;8.77;;;3.72;;
38847;SDS011;24602;44.780;20.408;2022-07-23T07:32:11;8.10;;;3.28;;
38847;SDS011;24602;44.780;20.408;2022-07-23T07:34:59;7.43;;;3.53;;
38847;SDS011;24602;44.780;20.408;2022-07-23T07:37:26;6.68;;;3.10;;
38847;SDS011;24602;44.780;20.408;2022-07-23T07:39:53;14.63;;;3.83;;
38847;SDS011;24602;44.780;20.408;2022-07-23T07:42:20;7.15;;;3.58;;
38847;SDS011;24602;44.780;20.408;2022-07-23T07:44:48;10.13;;;3.92;;
38847;SDS011;24602;44.780;20.408;2022-07-23T07:47:15;12.75;;;3.95;;
38847;SDS011;24602;44.780;20.408;2022-07-23T07:49:42;6.63;;;3.30;;
38847;SDS011;24602;44.780;20.408;2022-07-23T07:52:10;7.20;;;3.33;;
38847;SDS011;24602;44.780;20.408;2022-07-23T07:54:38;9.68;;;3.65;;
38847;SDS011;24602;44.780;20.408;2022-07-23T07:57:05;9.50;;;3.80;;
38847;SDS011;24602;44.780;20.408;2022-07-23T07:59:34;6.43;;;3.53;;
38847;SDS011;24602;44.780;20.408;2022-07-23T08:02:01;9.27;;;3.75;;
38847;SDS011;24602;44.780;20.408;2022-07-23T08:04:28;12.35;;;3.70;;
38847;SDS011;24602;44.780;20.408;2022-07-23T08:06:56;12.05;;;4.22;;
38847;SDS011;24602;44.780;20.408;2022-07-23T08:09:23;10.68;;;4.15;;
38847;SDS011;24602;44.780;20.408;2022-07-23T08:11:50;7.68;;;3.15;;
38847;SDS011;24602;44.780;20.408;2022-07-23T08:14:18;10.25;;;3.42;;
38847;SDS011;24602;44.780;20.408;2022-07-23T08:16:45;11.15;;;3.65;;
38847;SDS011;24602;44.780;20.408;2022-07-23T08:19:33;11.27;;;3.63;;
38847;SDS011;24602;44.780;20.408;2022-07-23T08:22:00;15.60;;;3.60;;
38847;SDS011;24602;44.780;20.408;2022-07-23T08:24:27;12.27;;;4.30;;
38847;SDS011;24602;44.780;20.408;2022-07-23T08:26:54;13.55;;;3.83;;
38847;SDS011;24602;44.780;20.408;2022-07-23T08:29:22;7.35;;;3.88;;
38847;SDS011;24602;44.780;20.408;2022-07-23T08:31:53;12.90;;;4.30;;
38847;SDS011;24602;44.780;20.408;2022-07-23T08:34:20;14.10;;;4.25;;
38847;SDS011;24602;44.780;20.408;2022-07-23T08:36:47;17.90;;;5.03;;
38847;SDS011;24602;44.780;20.408;2022-07-23T08:39:14;15.00;;;4.88;;
38847;SDS011;24602;44.780;20.408;2022-07-23T08:41:42;14.02;;;4.28;;
38847;SDS011;24602;44.780;20.408;2022-07-23T08:44:09;10.88;;;3.97;;
38847;SDS011;24602;44.780;20.408;2022-07-23T08:46:37;11.73;;;4.43;;
38847;SDS011;24602;44.780;20.408;2022-07-23T08:49:09;14.57;;;4.43;;
38847;SDS011;24602;44.780;20.408;2022-07-23T08:51:37;14.18;;;4.28;;
38847;SDS011;24602;44.780;20.408;2022-07-23T08:54:05;14.43;;;4.53;;
38847;SDS011;24602;44.780;20.408;2022-07-23T08:56:32;7.35;;;3.75;;
38847;SDS011;24602;44.780;20.408;2022-07-23T08:58:59;7.93;;;3.83;;
38847;SDS011;24602;44.780;20.408;2022-07-23T09:01:26;8.32;;;4.43;;
38847;SDS011;24602;44.780;20.408;2022-07-23T09:03:54;7.15;;;3.92;;
38847;SDS011;24602;44.780;20.408;2022-07-23T09:06:21;12.48;;;3.88;;
38847;SDS011;24602;44.780;20.408;2022-07-23T09:08:48;14.82;;;4.65;;
38847;SDS011;24602;44.780;20.408;2022-07-23T09:11:16;16.52;;;4.15;;
38847;SDS011;24602;44.780;20.408;2022-07-23T09:26:35;10.63;;;4.05;;
38847;SDS011;24602;44.780;20.408;2022-07-23T09:29:09;13.88;;;3.78;;
38847;SDS011;24602;44.780;20.408;2022-07-23T09:34:20;14.55;;;3.78;;
38847;SDS011;24602;44.780;20.408;2022-07-23T09:36:56;8.38;;;4.13;;
38847;SDS011;24602;44.780;20.408;2022-07-23T09:39:29;14.35;;;4.70;;
38847;SDS011;24602;44.780;20.408;2022-07-23T09:41:57;11.05;;;4.35;;
38847;SDS011;24602;44.780;20.408;2022-07-23T09:44:46;15.40;;;5.57;;
38847;SDS011;24602;44.780;20.408;2022-07-23T09:47:16;12.93;;;5.00;;
38847;SDS011;24602;44.780;20.408;2022-07-23T09:52:33;12.05;;;5.13;;
38847;SDS011;24602;44.780;20.408;2022-07-23T09:55:03;13.02;;;5.03;;
38847;SDS011;24602;44.780;20.408;2022-07-23T09:57:32;10.93;;;5.00;;
38847;SDS011;24602;44.780;20.408;2022-07-23T10:00:00;6.97;;;4.70;;
38847;SDS011;24602;44.780;20.408;2022-07-23T10:02:34;11.13;;;5.13;;
38847;SDS011;24602;44.780;20.408;2022-07-23T10:05:20;11.98;;;4.57;;
38847;SDS011;24602;44.780;20.408;2022-07-23T10:08:18;11.63;;;4.90;;
38847;SDS011;24602;44.780;20.408;2022-07-23T10:11:07;10.38;;;4.95;;
38847;SDS011;24602;44.780;20.408;2022-07-23T10:13:47;13.00;;;5.45;;
38847;SDS011;24602;44.780;20.408;2022-07-23T10:16:46;8.48;;;5.20;;
38847;SDS011;24602;44.780;20.408;2022-07-23T10:19:15;12.85;;;5.50;;
38847;SDS011;24602;44.780;20.408;2022-07-23T10:21:50;7.10;;;4.35;;
38847;SDS011;24602;44.780;20.408;2022-07-23T10:24:28;11.55;;;5.35;;
38847;SDS011;24602;44.780;20.408;2022-07-23T10:30:07;9.60;;;4.87;;
38847;SDS011;24602;44.780;20.408;2022-07-23T10:35:53;8.95;;;5.00;;
38847;SDS011;24602;44.780;20.408;2022-07-23T10:38:33;13.75;;;4.55;;
38847;SDS011;24602;44.780;20.408;2022-07-23T10:41:05;9.02;;;4.55;;
38847;SDS011;24602;44.780;20.408;2022-07-23T10:43:32;14.60;;;5.05;;
38847;SDS011;24602;44.780;20.408;2022-07-23T10:54:42;10.32;;;4.43;;
38847;SDS011;24602;44.780;20.408;2022-07-23T10:57:12;11.82;;;5.15;;
38847;SDS011;24602;44.780;20.408;2022-07-23T11:02:30;8.32;;;4.75;;
38847;SDS011;24602;44.780;20.408;2022-07-23T11:05:03;12.82;;;5.63;;
38847;SDS011;24602;44.780;20.408;2022-07-23T11:10:00;15.00;;;5.47;;
38847;SDS011;24602;44.780;20.408;2022-07-23T11:15:14;11.30;;;5.65;;
38847;SDS011;24602;44.780;20.408;2022-07-23T11:20:19;10.25;;;4.95;;
38847;SDS011;24602;44.780;20.408;2022-07-23T11:22:49;8.23;;;4.43;;
38847;SDS011;24602;44.780;20.408;2022-07-23T11:27:55;13.15;;;5.18;;
38847;SDS011;24602;44.780;20.408;2022-07-23T11:35:35;12.15;;;5.35;;
38847;SDS011;24602;44.780;20.408;2022-07-23T11:38:04;9.07;;;4.97;;
38847;SDS011;24602;44.780;20.408;2022-07-23T11:40:38;15.05;;;6.05;;
38847;SDS011;24602;44.780;20.408;2022-07-23T11:43:09;12.00;;;5.25;;
38847;SDS011;24602;44.780;20.408;2022-07-23T11:45:38;12.60;;;4.80;;
38847;SDS011;24602;44.780;20.408;2022-07-23T11:48:09;15.10;;;5.22;;
38847;SDS011;24602;44.780;20.408;2022-07-23T11:50:42;14.07;;;7.20;;
38847;SDS011;24602;44.780;20.408;2022-07-23T11:53:09;9.93;;;5.43;;
38847;SDS011;24602;44.780;20.408;2022-07-23T11:55:37;13.38;;;5.38;;
38847;SDS011;24602;44.780;20.408;2022-07-23T11:58:04;8.98;;;4.57;;
38847;SDS011;24602;44.780;20.408;2022-07-23T12:00:32;10.98;;;4.88;;
38847;SDS011;24602;44.780;20.408;2022-07-23T12:03:06;8.45;;;4.25;;
38847;SDS011;24602;44.780;20.408;2022-07-23T12:05:36;15.32;;;4.47;;
38847;SDS011;24602;44.780;20.408;2022-07-23T12:08:05;13.95;;;4.53;;
38847;SDS011;24602;44.780;20.408;2022-07-23T12:10:41;8.38;;;4.63;;
38847;SDS011;24602;44.780;20.408;2022-07-23T12:13:13;13.05;;;5.43;;
38847;SDS011;24602;44.780;20.408;2022-07-23T12:15:43;8.23;;;4.47;;
38847;SDS011;24602;44.780;20.408;2022-07-23T12:18:12;7.97;;;6.20;;
38847;SDS011;24602;44.780;20.408;2022-07-23T12:20:47;6.97;;;3.70;;
38847;SDS011;24602;44.780;20.408;2022-07-23T12:23:17;9.00;;;3.75;;
38847;SDS011;24602;44.780;20.408;2022-07-23T12:25:47;8.38;;;3.63;;
38847;SDS011;24602;44.780;20.408;2022-07-23T12:28:26;8.57;;;3.92;;
38847;SDS011;24602;44.780;20.408;2022-07-23T12:30:56;7.10;;;3.38;;
38847;SDS011;24602;44.780;20.408;2022-07-23T12:36:02;7.88;;;3.35;;
38847;SDS011;24602;44.780;20.408;2022-07-23T12:41:07;10.98;;;3.63;;
38847;SDS011;24602;44.780;20.408;2022-07-23T12:43:39;8.38;;;3.55;;
38847;SDS011;24602;44.780;20.408;2022-07-23T12:46:11;9.98;;;3.60;;
38847;SDS011;24602;44.780;20.408;2022-07-23T12:51:22;10.18;;;4.03;;
38847;SDS011;24602;44.780;20.408;2022-07-23T12:53:52;5.95;;;3.47;;
38847;SDS011;24602;44.780;20.408;2022-07-23T12:56:31;12.23;;;3.35;;
38847;SDS011;24602;44.780;20.408;2022-07-23T13:01:32;4.85;;;3.30;;
38847;SDS011;24602;44.780;20.408;2022-07-23T13:04:02;8.55;;;3.80;;
38847;SDS011;24602;44.780;20.408;2022-07-23T13:06:43;7.43;;;4.47;;
38847;SDS011;24602;44.780;20.408;2022-07-23T13:09:13;15.00;;;4.65;;
38847;SDS011;24602;44.780;20.408;2022-07-23T13:11:43;13.13;;;6.47;;
38847;SDS011;24602;44.780;20.408;2022-07-23T13:14:13;11.18;;;3.67;;
38847;SDS011;24602;44.780;20.408;2022-07-23T13:16:42;9.93;;;3.67;;
38847;SDS011;24602;44.780;20.408;2022-07-23T13:19:11;9.25;;;3.40;;
38847;SDS011;24602;44.780;20.408;2022-07-23T13:21:40;11.38;;;3.80;;
38847;SDS011;24602;44.780;20.408;2022-07-23T13:24:10;7.78;;;3.05;;
38847;SDS011;24602;44.780;20.408;2022-07-23T13:26:39;10.48;;;3.25;;
38847;SDS011;24602;44.780;20.408;2022-07-23T13:29:07;7.35;;;3.70;;
38847;SDS011;24602;44.780;20.408;2022-07-23T13:31:37;9.38;;;3.58;;
38847;SDS011;24602;44.780;20.408;2022-07-23T13:34:05;12.93;;;4.22;;
38847;SDS011;24602;44.780;20.408;2022-07-23T13:36:34;8.48;;;4.15;;
38847;SDS011;24602;44.780;20.408;2022-07-23T13:39:02;7.85;;;3.88;;
38847;SDS011;24602;44.780;20.408;2022-07-23T13:41:35;8.18;;;3.35;;
38847;SDS011;24602;44.780;20.408;2022-07-23T13:44:04;13.05;;;3.97;;
38847;SDS011;24602;44.780;20.408;2022-07-23T13:46:33;8.77;;;3.35;;
38847;SDS011;24602;44.780;20.408;2022-07-23T13:49:02;5.30;;;3.13;;
38847;SDS011;24602;44.780;20.408;2022-07-23T13:51:34;8.20;;;3.92;;
38847;SDS011;24602;44.780;20.408;2022-07-23T13:54:03;4.32;;;2.90;;
38847;SDS011;24602;44.780;20.408;2022-07-23T13:56:35;5.95;;;3.65;;
38847;SDS011;24602;44.780;20.408;2022-07-23T13:59:03;6.93;;;3.72;;
38847;SDS011;24602;44.780;20.408;2022-07-23T14:01:32;8.75;;;5.20;;
38847;SDS011;24602;44.780;20.408;2022-07-23T14:04:16;11.85;;;4.18;;
38847;SDS011;24602;44.780;20.408;2022-07-23T14:06:44;6.53;;;3.35;;
38847;SDS011;24602;44.780;20.408;2022-07-23T14:09:18;8.60;;;4.00;;
38847;SDS011;24602;44.780;20.408;2022-07-23T14:11:45;8.40;;;3.80;;
38847;SDS011;24602;44.780;20.408;2022-07-23T14:14:13;8.30;;;3.70;;
38847;SDS011;24602;44.780;20.408;2022-07-23T14:16:41;7.90;;;4.10;;
38847;SDS011;24602;44.780;20.408;2022-07-23T14:19:08;7.55;;;3.60;;
38847;SDS011;24602;44.780;20.408;2022-07-23T14:21:36;8.85;;;3.35;;
38847;SDS011;24602;44.780;20.408;2022-07-23T14:24:04;7.50;;;3.22;;
38847;SDS011;24602;44.780;20.408;2022-07-23T14:26:32;9.90;;;3.30;;
38847;SDS011;24602;44.780;20.408;2022-07-23T14:28:59;5.38;;;3.40;;
38847;SDS011;24602;44.780;20.408;2022-07-23T14:31:29;6.38;;;4.18;;
38847;SDS011;24602;44.780;20.408;2022-07-23T14:33:56;10.57;;;3.92;;
38847;SDS011;24602;44.780;20.408;2022-07-23T14:36:25;11.40;;;3.70;;
38847;SDS011;24602;44.780;20.408;2022-07-23T14:38:54;10.68;;;3.70;;
38847;SDS011;24602;44.780;20.408;2022-07-23T14:41:22;6.68;;;3.50;;
38847;SDS011;24602;44.780;20.408;2022-07-23T14:43:54;9.25;;;3.85;;
38847;SDS011;24602;44.780;20.408;2022-07-23T14:46:21;7.20;;;3.97;;
38847;SDS011;24602;44.780;20.408;2022-07-23T14:48:49;5.15;;;3.85;;
38847;SDS011;24602;44.780;20.408;2022-07-23T14:51:16;6.55;;;4.55;;
38847;SDS011;24602;44.780;20.408;2022-07-23T14:53:45;9.43;;;5.90;;
38847;SDS011;24602;44.780;20.408;2022-07-23T14:56:12;5.78;;;4.43;;
38847;SDS011;24602;44.780;20.408;2022-07-23T14:58:41;7.53;;;5.05;;
38847;SDS011;24602;44.780;20.408;2022-07-23T15:01:09;6.70;;;4.38;;
38847;SDS011;24602;44.780;20.408;2022-07-23T15:03:37;11.18;;;5.18;;
38847;SDS011;24602;44.780;20.408;2022-07-23T15:06:09;6.28;;;4.40;;
38847;SDS011;24602;44.780;20.408;2022-07-23T15:08:37;5.38;;;3.97;;
38847;SDS011;24602;44.780;20.408;2022-07-23T15:11:05;8.50;;;3.78;;
38847;SDS011;24602;44.780;20.408;2022-07-23T15:13:36;7.03;;;3.70;;
38847;SDS011;24602;44.780;20.408;2022-07-23T15:16:05;7.43;;;4.10;;
38847;SDS011;24602;44.780;20.408;2022-07-23T15:18:36;9.60;;;4.38;;
38847;SDS011;24602;44.780;20.408;2022-07-23T15:21:03;8.32;;;3.97;;
38847;SDS011;24602;44.780;20.408;2022-07-23T15:23:32;6.55;;;4.00;;
38847;SDS011;24602;44.780;20.408;2022-07-23T15:26:01;7.50;;;3.78;;
38847;SDS011;24602;44.780;20.408;2022-07-23T15:28:29;7.32;;;4.50;;
38847;SDS011;24602;44.780;20.408;2022-07-23T15:30:56;9.93;;;3.95;;
38847;SDS011;24602;44.780;20.408;2022-07-23T15:33:23;7.68;;;4.65;;
38847;SDS011;24602;44.780;20.408;2022-07-23T15:35:52;8.55;;;4.22;;
38847;SDS011;24602;44.780;20.408;2022-07-23T15:38:22;4.57;;;3.47;;
38847;SDS011;24602;44.780;20.408;2022-07-23T15:40:55;6.43;;;4.32;;
38847;SDS011;24602;44.780;20.408;2022-07-23T15:43:23;5.32;;;4.10;;